sensor_id;sensor_type;location;lat;lon;timestamp;pressure;altitude;pressure_sealevel;temperature;humidity
7109;BME280;29079;41.930;25.558;2023-02-23T00:00:05;99546.19;;;6.04;79.91
7109;BME280;29079;41.930;25.558;2023-02-23T00:02:47;99548.72;;;6.06;79.88
7109;BME280;29079;41.930;25.558;2023-02-23T00:05:23;99552.66;;;6.00;80.35
7109;BME280;29079;41.930;25.558;2023-02-23T00:07:56;99557.94;;;6.00;80.01
7109;BME280;29079;41.930;25.558;2023-02-23T00:10:30;99547.13;;;6.16;79.47
7109;BME280;29079;41.930;25.558;2023-02-23T00:13:04;99549.78;;;6.16;80.18
7109;BME280;29079;41.930;25.558;2023-02-23T00:15:38;99555.81;;;6.05;80.73
7109;BME280;29079;41.930;25.558;2023-02-23T00:18:12;99556.78;;;6.04;80.68
7109;BME280;29079;41.930;25.558;2023-02-23T00:20:55;99557.63;;;6.18;80.22
7109;BME280;29079;41.930;25.558;2023-02-23T00:23:29;99554.88;;;6.06;80.44
7109;BME280;29079;41.930;25.558;2023-02-23T00:26:02;99552.06;;;5.95;81.04
7109;BME280;29079;41.930;25.558;2023-02-23T00:28:36;99559.19;;;5.95;81.39
7109;BME280;29079;41.930;25.558;2023-02-23T00:31:10;99556.22;;;5.86;81.56
7109;BME280;29079;41.930;25.558;2023-02-23T00:33:44;99562.88;;;5.92;80.60
7109;BME280;29079;41.930;25.558;2023-02-23T00:36:20;99551.06;;;5.98;80.35
7109;BME280;29079;41.930;25.558;2023-02-23T00:38:55;99556.53;;;5.95;80.55
7109;BME280;29079;41.930;25.558;2023-02-23T00:41:29;99559.50;;;5.90;80.44
7109;BME280;29079;41.930;25.558;2023-02-23T00:44:03;99556.66;;;5.93;80.33
7109;BME280;29079;41.930;25.558;2023-02-23T00:46:36;99558.56;;;5.78;81.14
7109;BME280;29079;41.930;25.558;2023-02-23T00:49:12;99552.91;;;5.57;81.90
7109;BME280;29079;41.930;25.558;2023-02-23T00:51:46;99543.06;;;5.46;82.06
7109;BME280;29079;41.930;25.558;2023-02-23T00:54:20;99548.75;;;5.40;82.26
7109;BME280;29079;41.930;25.558;2023-02-23T00:56:53;99556.50;;;5.56;81.41
7109;BME280;29079;41.930;25.558;2023-02-23T00:59:27;99549.09;;;5.48;81.72
7109;BME280;29079;41.930;25.558;2023-02-23T01:02:01;99539.22;;;5.37;82.29
7109;BME280;29079;41.930;25.558;2023-02-23T01:04:35;99552.03;;;5.44;81.90
7109;BME280;29079;41.930;25.558;2023-02-23T01:07:10;99552.03;;;5.44;81.78
7109;BME280;29079;41.930;25.558;2023-02-23T01:09:44;99549.41;;;5.44;81.41
7109;BME280;29079;41.930;25.558;2023-02-23T01:12:19;99551.09;;;5.45;81.69
7109;BME280;29079;41.930;25.558;2023-02-23T01:14:52;99557.84;;;5.36;82.01
7109;BME280;29079;41.930;25.558;2023-02-23T01:17:26;99555.19;;;5.23;82.66
7109;BME280;29079;41.930;25.558;2023-02-23T01:20:02;99550.00;;;5.34;82.49
7109;BME280;29079;41.930;25.558;2023-02-23T01:22:47;99549.41;;;5.44;81.88
7109;BME280;29079;41.930;25.558;2023-02-23T01:25:21;99552.00;;;5.31;82.34
7109;BME280;29079;41.930;25.558;2023-02-23T01:27:55;99558.13;;;5.31;83.12
7109;BME280;29079;41.930;25.558;2023-02-23T01:30:29;99551.38;;;5.40;82.46
7109;BME280;29079;41.930;25.558;2023-02-23T01:33:02;99550.09;;;5.33;82.98
7109;BME280;29079;41.930;25.558;2023-02-23T01:35:36;99551.84;;;5.47;82.52
7109;BME280;29079;41.930;25.558;2023-02-23T01:38:11;99553.44;;;5.49;82.25
7109;BME280;29079;41.930;25.558;2023-02-23T01:40:44;99556.28;;;5.46;82.93
7109;BME280;29079;41.930;25.558;2023-02-23T01:43:20;99552.03;;;5.44;82.91
7109;BME280;29079;41.930;25.558;2023-02-23T01:45:57;99560.50;;;5.49;82.65
7109;BME280;29079;41.930;25.558;2023-02-23T01:48:34;99557.41;;;5.29;83.95
7109;BME280;29079;41.930;25.558;2023-02-23T01:51:10;99556.91;;;5.50;83.74
7109;BME280;29079;41.930;25.558;2023-02-23T01:53:49;99554.72;;;5.56;83.28
7109;BME280;29079;41.930;25.558;2023-02-23T01:56:27;99539.31;;;5.49;82.94
7109;BME280;29079;41.930;25.558;2023-02-23T01:59:04;99562.75;;;5.55;83.72
7109;BME280;29079;41.930;25.558;2023-02-23T02:01:38;99563.16;;;5.49;83.91
7109;BME280;29079;41.930;25.558;2023-02-23T02:04:13;99563.38;;;5.58;83.86
7109;BME280;29079;41.930;25.558;2023-02-23T02:06:48;99565.63;;;5.65;83.33
7109;BME280;29079;41.930;25.558;2023-02-23T02:09:26;99570.06;;;5.64;82.94
7109;BME280;29079;41.930;25.558;2023-02-23T02:12:00;99569.66;;;5.70;83.40
7109;BME280;29079;41.930;25.558;2023-02-23T02:14:34;99576.00;;;5.55;84.13
7109;BME280;29079;41.930;25.558;2023-02-23T02:17:18;99579.81;;;5.64;83.84
7109;BME280;29079;41.930;25.558;2023-02-23T02:20:29;99574.91;;;5.57;83.89
7109;BME280;29079;41.930;25.558;2023-02-23T02:26:21;99573.56;;;5.52;84.02
7109;BME280;29079;41.930;25.558;2023-02-23T02:32:21;99580.13;;;5.46;83.70
7109;BME280;29079;41.930;25.558;2023-02-23T02:35:27;99591.19;;;5.38;83.67
7109;BME280;29079;41.930;25.558;2023-02-23T02:38:22;99582.47;;;5.23;84.17
7109;BME280;29079;41.930;25.558;2023-02-23T02:41:02;99581.22;;;5.29;83.25
7109;BME280;29079;41.930;25.558;2023-02-23T02:43:44;99584.13;;;5.12;83.79
7109;BME280;29079;41.930;25.558;2023-02-23T02:46:22;99586.06;;;5.22;83.02
7109;BME280;29079;41.930;25.558;2023-02-23T02:49:03;99585.72;;;5.14;83.23
7109;BME280;29079;41.930;25.558;2023-02-23T02:51:42;99588.16;;;4.90;84.16
7109;BME280;29079;41.930;25.558;2023-02-23T02:54:24;99597.19;;;5.00;83.15
7109;BME280;29079;41.930;25.558;2023-02-23T02:57:01;99599.88;;;4.86;83.34
7109;BME280;29079;41.930;25.558;2023-02-23T02:59:42;99597.72;;;4.78;83.80
7109;BME280;29079;41.930;25.558;2023-02-23T03:02:35;99592.06;;;4.70;83.88
7109;BME280;29079;41.930;25.558;2023-02-23T03:05:35;99601.00;;;4.82;83.28
7109;BME280;29079;41.930;25.558;2023-02-23T03:08:32;99599.44;;;4.79;83.55
7109;BME280;29079;41.930;25.558;2023-02-23T03:11:33;99585.38;;;4.64;83.80
7109;BME280;29079;41.930;25.558;2023-02-23T03:14:33;99598.75;;;4.90;82.99
7109;BME280;29079;41.930;25.558;2023-02-23T03:17:32;99605.00;;;4.75;83.70
7109;BME280;29079;41.930;25.558;2023-02-23T03:20:36;99557.19;;;4.50;83.30
7109;BME280;29079;41.930;25.558;2023-02-23T03:23:39;99602.03;;;4.94;82.96
7109;BME280;29079;41.930;25.558;2023-02-23T03:26:39;99606.00;;;4.86;83.11
7109;BME280;29079;41.930;25.558;2023-02-23T03:29:32;99607.91;;;4.84;83.28
7109;BME280;29079;41.930;25.558;2023-02-23T03:32:30;99607.63;;;4.75;84.46
7109;BME280;29079;41.930;25.558;2023-02-23T03:35:26;99611.66;;;4.95;82.99
7109;BME280;29079;41.930;25.558;2023-02-23T03:38:25;99609.16;;;4.79;84.05
7109;BME280;29079;41.930;25.558;2023-02-23T03:41:19;99608.59;;;4.88;84.02
7109;BME280;29079;41.930;25.558;2023-02-23T03:44:14;99614.97;;;4.98;83.70
7109;BME280;29079;41.930;25.558;2023-02-23T03:47:08;99600.03;;;4.97;84.07
7109;BME280;29079;41.930;25.558;2023-02-23T03:50:04;99610.03;;;5.06;83.85
7109;BME280;29079;41.930;25.558;2023-02-23T03:52:58;99611.94;;;5.04;84.01
7109;BME280;29079;41.930;25.558;2023-02-23T03:55:51;99625.34;;;5.01;84.23
7109;BME280;29079;41.930;25.558;2023-02-23T03:58:48;99620.72;;;4.91;84.74
7109;BME280;29079;41.930;25.558;2023-02-23T04:01:41;99620.59;;;5.06;84.09
7109;BME280;29079;41.930;25.558;2023-02-23T04:04:33;99618.00;;;4.92;84.42
7109;BME280;29079;41.930;25.558;2023-02-23T04:07:24;99626.41;;;4.99;84.29
7109;BME280;29079;41.930;25.558;2023-02-23T04:10:16;99615.75;;;4.86;84.33
7109;BME280;29079;41.930;25.558;2023-02-23T04:13:10;99625.16;;;5.04;84.01
7109;BME280;29079;41.930;25.558;2023-02-23T04:15:49;99620.19;;;4.85;84.21
7109;BME280;29079;41.930;25.558;2023-02-23T04:18:27;99620.06;;;5.01;83.91
7109;BME280;29079;41.930;25.558;2023-02-23T04:21:02;99619.19;;;5.01;83.80
7109;BME280;29079;41.930;25.558;2023-02-23T04:23:36;99615.91;;;4.97;83.90
7109;BME280;29079;41.930;25.558;2023-02-23T04:26:11;99617.16;;;4.92;84.03
7109;BME280;29079;41.930;25.558;2023-02-23T04:28:45;99618.22;;;4.75;84.81
7109;BME280;29079;41.930;25.558;2023-02-23T04:31:18;99617.56;;;4.85;83.99
7109;BME280;29079;41.930;25.558;2023-02-23T04:33:57;99614.13;;;4.83;83.95
7109;BME280;29079;41.930;25.558;2023-02-23T04:36:31;99629.84;;;4.72;84.56
7109;BME280;29079;41.930;25.558;2023-02-23T04:39:04;99622.47;;;4.77;84.31
7109;BME280;29079;41.930;25.558;2023-02-23T04:41:37;99628.53;;;4.79;84.09
7109;BME280;29079;41.930;25.558;2023-02-23T04:44:10;99629.75;;;4.88;83.91
7109;BME280;29079;41.930;25.558;2023-02-23T04:46:44;99629.75;;;4.88;83.97
7109;BME280;29079;41.930;25.558;2023-02-23T04:49:19;99606.16;;;4.70;83.76
7109;BME280;29079;41.930;25.558;2023-02-23T04:51:52;99633.34;;;4.73;84.73
7109;BME280;29079;41.930;25.558;2023-02-23T04:54:26;99633.72;;;4.66;85.29
7109;BME280;29079;41.930;25.558;2023-02-23T04:56:59;99573.91;;;4.36;84.69
7109;BME280;29079;41.930;25.558;2023-02-23T04:59:33;99628.66;;;4.63;85.28
7109;BME280;29079;41.930;25.558;2023-02-23T05:02:07;99639.47;;;4.59;85.66
7109;BME280;29079;41.930;25.558;2023-02-23T05:04:42;99640.88;;;4.79;85.26
7109;BME280;29079;41.930;25.558;2023-02-23T05:07:16;99640.13;;;4.91;85.00
7109;BME280;29079;41.930;25.558;2023-02-23T05:09:49;99642.53;;;5.09;84.20
7109;BME280;29079;41.930;25.558;2023-02-23T05:12:25;99641.22;;;5.01;84.37
7109;BME280;29079;41.930;25.558;2023-02-23T05:14:59;99639.03;;;4.66;85.53
7109;BME280;29079;41.930;25.558;2023-02-23T05:17:37;99649.69;;;4.65;85.92
7109;BME280;29079;41.930;25.558;2023-02-23T05:20:14;99653.56;;;4.59;86.06
7109;BME280;29079;41.930;25.558;2023-02-23T05:22:47;99654.88;;;4.66;86.37
7109;BME280;29079;41.930;25.558;2023-02-23T05:25:21;99653.47;;;4.61;87.35
7109;BME280;29079;41.930;25.558;2023-02-23T05:27:54;99656.94;;;4.76;86.77
7109;BME280;29079;41.930;25.558;2023-02-23T05:30:28;99662.50;;;4.85;87.21
7109;BME280;29079;41.930;25.558;2023-02-23T05:33:01;99672.28;;;4.98;87.48
7109;BME280;29079;41.930;25.558;2023-02-23T05:35:39;99678.47;;;4.84;88.92
7109;BME280;29079;41.930;25.558;2023-02-23T05:38:13;99670.44;;;4.71;90.23
7109;BME280;29079;41.930;25.558;2023-02-23T05:40:46;99689.69;;;4.73;91.02
7109;BME280;29079;41.930;25.558;2023-02-23T05:43:20;99689.50;;;4.91;90.96
7109;BME280;29079;41.930;25.558;2023-02-23T05:45:53;99695.38;;;4.81;91.75
7109;BME280;29079;41.930;25.558;2023-02-23T05:48:26;99691.31;;;4.90;91.63
7109;BME280;29079;41.930;25.558;2023-02-23T05:51:02;99706.34;;;4.90;92.38
7109;BME280;29079;41.930;25.558;2023-02-23T05:53:36;99711.53;;;4.77;93.55
7109;BME280;29079;41.930;25.558;2023-02-23T05:56:12;99700.84;;;4.64;95.26
7109;BME280;29079;41.930;25.558;2023-02-23T05:58:50;99709.81;;;4.76;95.73
7109;BME280;29079;41.930;25.558;2023-02-23T06:01:25;99712.34;;;5.06;94.71
7109;BME280;29079;41.930;25.558;2023-02-23T06:03:59;99729.03;;;5.21;94.02
7109;BME280;29079;41.930;25.558;2023-02-23T06:06:36;99703.78;;;4.88;95.04
7109;BME280;29079;41.930;25.558;2023-02-23T06:09:09;99726.91;;;4.84;96.22
7109;BME280;29079;41.930;25.558;2023-02-23T06:11:43;99732.00;;;5.02;95.51
7109;BME280;29079;41.930;25.558;2023-02-23T06:14:16;99727.75;;;4.99;94.75
7109;BME280;29079;41.930;25.558;2023-02-23T06:16:50;99730.03;;;5.05;94.51
7109;BME280;29079;41.930;25.558;2023-02-23T06:19:24;99739.00;;;4.88;95.40
7109;BME280;29079;41.930;25.558;2023-02-23T06:21:59;99673.66;;;4.33;96.16
7109;BME280;29079;41.930;25.558;2023-02-23T06:24:33;99741.16;;;4.82;96.48
7109;BME280;29079;41.930;25.558;2023-02-23T06:27:06;99746.34;;;4.83;95.48
7109;BME280;29079;41.930;25.558;2023-02-23T06:29:40;99741.16;;;4.82;95.40
7109;BME280;29079;41.930;25.558;2023-02-23T06:32:13;99738.22;;;4.86;95.98
7109;BME280;29079;41.930;25.558;2023-02-23T06:34:47;99741.44;;;4.77;96.04
7109;BME280;29079;41.930;25.558;2023-02-23T06:37:22;99754.03;;;4.74;96.50
7109;BME280;29079;41.930;25.558;2023-02-23T06:39:56;99750.81;;;4.83;95.89
7109;BME280;29079;41.930;25.558;2023-02-23T06:42:29;99745.13;;;5.03;94.76
7109;BME280;29079;41.930;25.558;2023-02-23T06:45:04;99749.69;;;5.01;94.17
7109;BME280;29079;41.930;25.558;2023-02-23T06:47:37;99742.69;;;5.00;94.13
7109;BME280;29079;41.930;25.558;2023-02-23T06:50:12;99753.06;;;5.18;93.36
7109;BME280;29079;41.930;25.558;2023-02-23T06:52:47;99763.25;;;5.10;92.87
7109;BME280;29079;41.930;25.558;2023-02-23T06:55:20;99764.75;;;5.14;92.88
7109;BME280;29079;41.930;25.558;2023-02-23T06:57:54;99766.56;;;5.13;93.21
7109;BME280;29079;41.930;25.558;2023-02-23T07:00:27;99760.44;;;5.13;93.02
7109;BME280;29079;41.930;25.558;2023-02-23T07:03:01;99758.81;;;5.25;92.79
7109;BME280;29079;41.930;25.558;2023-02-23T07:05:35;99766.38;;;5.16;93.47
7109;BME280;29079;41.930;25.558;2023-02-23T07:08:10;99751.91;;;5.22;93.08
7109;BME280;29079;41.930;25.558;2023-02-23T07:10:44;99768.53;;;5.24;93.26
7109;BME280;29079;41.930;25.558;2023-02-23T07:13:18;99776.22;;;5.29;92.59
7109;BME280;29079;41.930;25.558;2023-02-23T07:15:56;99762.13;;;5.14;92.71
7109;BME280;29079;41.930;25.558;2023-02-23T07:18:29;99770.91;;;5.29;92.80
7109;BME280;29079;41.930;25.558;2023-02-23T07:21:03;99775.13;;;5.31;92.01
7109;BME280;29079;41.930;25.558;2023-02-23T07:23:38;99766.44;;;5.44;90.82
7109;BME280;29079;41.930;25.558;2023-02-23T07:26:11;99773.59;;;5.41;90.48
7109;BME280;29079;41.930;25.558;2023-02-23T07:28:46;99772.03;;;5.39;90.58
7109;BME280;29079;41.930;25.558;2023-02-23T07:31:20;99772.75;;;5.55;90.06
7109;BME280;29079;41.930;25.558;2023-02-23T07:33:54;99777.72;;;5.60;89.14
7109;BME280;29079;41.930;25.558;2023-02-23T07:36:27;99774.38;;;5.85;88.87
7109;BME280;29079;41.930;25.558;2023-02-23T07:39:02;99774.06;;;5.90;88.47
7109;BME280;29079;41.930;25.558;2023-02-23T07:41:36;99787.38;;;6.03;87.58
7109;BME280;29079;41.930;25.558;2023-02-23T07:44:09;99786.31;;;6.05;87.44
7109;BME280;29079;41.930;25.558;2023-02-23T07:46:43;99781.56;;;6.10;87.88
7109;BME280;29079;41.930;25.558;2023-02-23T07:49:17;99768.53;;;6.07;87.49
7109;BME280;29079;41.930;25.558;2023-02-23T07:51:51;99789.16;;;6.30;87.34
7109;BME280;29079;41.930;25.558;2023-02-23T07:54:26;99781.72;;;6.22;88.07
7109;BME280;29079;41.930;25.558;2023-02-23T07:56:59;99787.91;;;6.08;89.04
7109;BME280;29079;41.930;25.558;2023-02-23T07:59:33;99794.47;;;5.88;90.86
7109;BME280;29079;41.930;25.558;2023-02-23T08:02:06;99782.25;;;6.00;91.47
7109;BME280;29079;41.930;25.558;2023-02-23T08:04:39;99788.56;;;5.84;92.47
7109;BME280;29079;41.930;25.558;2023-02-23T08:07:14;99795.72;;;5.82;92.38
7109;BME280;29079;41.930;25.558;2023-02-23T08:09:49;99799.56;;;5.91;93.06
7109;BME280;29079;41.930;25.558;2023-02-23T08:12:23;99803.56;;;5.98;92.96
7109;BME280;29079;41.930;25.558;2023-02-23T08:14:57;99807.41;;;5.80;93.46
7109;BME280;29079;41.930;25.558;2023-02-23T08:17:30;99812.91;;;5.77;93.89
7109;BME280;29079;41.930;25.558;2023-02-23T08:20:04;99809.00;;;6.09;92.91
7109;BME280;29079;41.930;25.558;2023-02-23T08:22:38;99808.47;;;6.04;93.07
7109;BME280;29079;41.930;25.558;2023-02-23T08:25:22;99814.16;;;5.98;93.70
7109;BME280;29079;41.930;25.558;2023-02-23T08:27:55;99800.94;;;5.84;95.44
7109;BME280;29079;41.930;25.558;2023-02-23T08:30:30;99812.91;;;6.04;94.59
7109;BME280;29079;41.930;25.558;2023-02-23T08:33:04;99802.16;;;5.92;95.44
7109;BME280;29079;41.930;25.558;2023-02-23T08:35:38;99815.03;;;5.84;96.19
7109;BME280;29079;41.930;25.558;2023-02-23T08:38:12;99810.28;;;5.89;95.69
7109;BME280;29079;41.930;25.558;2023-02-23T08:40:49;99785.78;;;5.58;95.92
7109;BME280;29079;41.930;25.558;2023-02-23T08:43:22;99815.19;;;5.96;95.13
7109;BME280;29079;41.930;25.558;2023-02-23T08:45:55;99814.16;;;5.98;95.00
7109;BME280;29079;41.930;25.558;2023-02-23T08:48:29;99798.47;;;5.81;95.61
7109;BME280;29079;41.930;25.558;2023-02-23T08:51:02;99774.34;;;5.58;96.27
7109;BME280;29079;41.930;25.558;2023-02-23T08:53:36;99826.03;;;5.78;96.89
7109;BME280;29079;41.930;25.558;2023-02-23T08:56:11;99824.06;;;5.67;98.50
7109;BME280;29079;41.930;25.558;2023-02-23T08:58:46;99811.91;;;5.78;98.18
7109;BME280;29079;41.930;25.558;2023-02-23T09:01:20;99823.25;;;5.94;98.43
7109;BME280;29079;41.930;25.558;2023-02-23T09:03:54;99808.09;;;5.96;97.07
7109;BME280;29079;41.930;25.558;2023-02-23T09:06:28;99815.69;;;5.88;98.14
7109;BME280;29079;41.930;25.558;2023-02-23T09:09:02;99807.28;;;5.81;98.16
7109;BME280;29079;41.930;25.558;2023-02-23T09:11:37;99821.53;;;6.07;97.66
7109;BME280;29079;41.930;25.558;2023-02-23T09:14:10;99831.31;;;6.20;97.13
7109;BME280;29079;41.930;25.558;2023-02-23T09:16:44;99818.41;;;6.28;96.75
7109;BME280;29079;41.930;25.558;2023-02-23T09:19:18;99829.47;;;6.07;98.27
7109;BME280;29079;41.930;25.558;2023-02-23T09:21:52;99810.81;;;6.36;96.60
7109;BME280;29079;41.930;25.558;2023-02-23T09:24:25;99820.22;;;6.40;96.37
7109;BME280;29079;41.930;25.558;2023-02-23T09:27:00;99821.41;;;6.36;97.12
7109;BME280;29079;41.930;25.558;2023-02-23T09:29:33;99818.44;;;6.41;96.20
7109;BME280;29079;41.930;25.558;2023-02-23T09:32:09;99811.41;;;6.27;97.09
7109;BME280;29079;41.930;25.558;2023-02-23T09:34:45;99819.59;;;6.37;96.44
7109;BME280;29079;41.930;25.558;2023-02-23T09:37:19;99819.19;;;6.43;96.28
7109;BME280;29079;41.930;25.558;2023-02-23T09:39:53;99817.78;;;6.37;96.04
7109;BME280;29079;41.930;25.558;2023-02-23T09:42:36;99807.84;;;6.41;96.23
7109;BME280;29079;41.930;25.558;2023-02-23T09:45:25;99807.28;;;6.36;95.98
7109;BME280;29079;41.930;25.558;2023-02-23T09:48:09;99832.47;;;6.56;96.13
7109;BME280;29079;41.930;25.558;2023-02-23T09:50:47;99824.78;;;6.38;97.36
7109;BME280;29079;41.930;25.558;2023-02-23T09:53:32;99811.47;;;6.53;97.39
7109;BME280;29079;41.930;25.558;2023-02-23T09:56:12;99823.66;;;6.55;97.24
7109;BME280;29079;41.930;25.558;2023-02-23T09:58:48;99822.94;;;6.66;96.96
7109;BME280;29079;41.930;25.558;2023-02-23T10:01:38;99823.47;;;6.71;96.63
7109;BME280;29079;41.930;25.558;2023-02-23T10:04:20;99802.59;;;6.67;96.90
7109;BME280;29079;41.930;25.558;2023-02-23T10:07:04;99825.81;;;6.89;96.44
7109;BME280;29079;41.930;25.558;2023-02-23T10:09:50;99816.91;;;7.03;95.85
7109;BME280;29079;41.930;25.558;2023-02-23T10:12:32;99819.53;;;7.03;96.55
7109;BME280;29079;41.930;25.558;2023-02-23T10:15:26;99817.66;;;7.18;96.27
7109;BME280;29079;41.930;25.558;2023-02-23T10:18:15;99812.41;;;7.42;95.62
7109;BME280;29079;41.930;25.558;2023-02-23T10:20:58;99809.81;;;7.53;94.95
7109;BME280;29079;41.930;25.558;2023-02-23T10:23:39;99808.06;;;7.41;95.94
7109;BME280;29079;41.930;25.558;2023-02-23T10:26:16;99778.75;;;7.42;95.62
7109;BME280;29079;41.930;25.558;2023-02-23T10:28:51;99800.72;;;7.44;96.31
7109;BME280;29079;41.930;25.558;2023-02-23T10:31:32;99789.88;;;7.47;96.89
7109;BME280;29079;41.930;25.558;2023-02-23T10:34:12;99787.00;;;7.38;97.76
7109;BME280;29079;41.930;25.558;2023-02-23T10:36:51;99796.06;;;7.72;96.45
7109;BME280;29079;41.930;25.558;2023-02-23T10:39:26;99797.63;;;7.88;95.58
7109;BME280;29079;41.930;25.558;2023-02-23T10:42:02;99760.97;;;7.56;95.57
7109;BME280;29079;41.930;25.558;2023-02-23T10:44:37;99796.81;;;7.74;96.09
7109;BME280;29079;41.930;25.558;2023-02-23T10:47:15;99800.53;;;7.72;96.83
7109;BME280;29079;41.930;25.558;2023-02-23T10:49:51;99796.28;;;7.69;97.74
7109;BME280;29079;41.930;25.558;2023-02-23T10:52:28;99791.78;;;7.82;96.53
7109;BME280;29079;41.930;25.558;2023-02-23T10:55:06;99775.59;;;7.85;96.16
7109;BME280;29079;41.930;25.558;2023-02-23T10:57:40;99788.53;;;8.03;95.22
7109;BME280;29079;41.930;25.558;2023-02-23T11:00:25;99780.19;;;8.08;96.55
7109;BME280;29079;41.930;25.558;2023-02-23T11:03:15;99777.13;;;8.25;94.44
7109;BME280;29079;41.930;25.558;2023-02-23T11:05:50;99783.56;;;8.34;94.49
7109;BME280;29079;41.930;25.558;2023-02-23T11:08:27;99783.63;;;8.21;95.20
7109;BME280;29079;41.930;25.558;2023-02-23T11:11:20;99778.44;;;8.19;95.78
7109;BME280;29079;41.930;25.558;2023-02-23T11:13:58;99742.47;;;8.02;95.53
7109;BME280;29079;41.930;25.558;2023-02-23T11:16:41;99772.44;;;8.40;94.92
7109;BME280;29079;41.930;25.558;2023-02-23T11:19:21;99771.22;;;8.57;94.59
7109;BME280;29079;41.930;25.558;2023-02-23T11:21:56;99770.34;;;8.45;94.13
7109;BME280;29079;41.930;25.558;2023-02-23T11:24:33;99763.50;;;8.41;95.03
7109;BME280;29079;41.930;25.558;2023-02-23T11:27:19;99764.22;;;8.67;94.68
7109;BME280;29079;41.930;25.558;2023-02-23T11:29:56;99758.50;;;8.61;94.68
7109;BME280;29079;41.930;25.558;2023-02-23T11:32:33;99743.41;;;8.61;94.19
7109;BME280;29079;41.930;25.558;2023-02-23T11:35:27;99760.72;;;8.89;93.14
7109;BME280;29079;41.930;25.558;2023-02-23T11:38:14;99750.56;;;8.83;93.67
7109;BME280;29079;41.930;25.558;2023-02-23T11:40:58;99756.00;;;8.82;93.44
7109;BME280;29079;41.930;25.558;2023-02-23T11:43:32;99755.75;;;8.74;94.41
7109;BME280;29079;41.930;25.558;2023-02-23T11:46:07;99754.56;;;8.89;93.36
7109;BME280;29079;41.930;25.558;2023-02-23T11:48:46;99757.22;;;8.89;93.73
7109;BME280;29079;41.930;25.558;2023-02-23T11:51:24;99744.75;;;8.89;93.79
7109;BME280;29079;41.930;25.558;2023-02-23T11:54:00;99757.22;;;8.89;93.93
7109;BME280;29079;41.930;25.558;2023-02-23T11:56:36;99762.44;;;8.91;93.06
7109;BME280;29079;41.930;25.558;2023-02-23T11:59:16;99761.94;;;8.97;92.95
7109;BME280;29079;41.930;25.558;2023-02-23T12:01:53;99760.97;;;8.86;93.24
7109;BME280;29079;41.930;25.558;2023-02-23T12:04:31;99766.75;;;8.92;93.27
7109;BME280;29079;41.930;25.558;2023-02-23T12:07:31;99768.97;;;8.98;92.77
7109;BME280;29079;41.930;25.558;2023-02-23T12:10:15;99755.66;;;8.98;93.55
7109;BME280;29079;41.930;25.558;2023-02-23T12:13:01;99759.91;;;9.00;93.05
7109;BME280;29079;41.930;25.558;2023-02-23T12:15:41;99758.19;;;8.88;93.91
7109;BME280;29079;41.930;25.558;2023-02-23T12:18:29;99747.88;;;9.06;92.77
7109;BME280;29079;41.930;25.558;2023-02-23T12:21:14;99751.28;;;8.97;92.97
7109;BME280;29079;41.930;25.558;2023-02-23T12:24:00;99755.66;;;9.09;93.45
7109;BME280;29079;41.930;25.558;2023-02-23T12:26:42;99758.53;;;9.17;92.53
7109;BME280;29079;41.930;25.558;2023-02-23T12:29:22;99758.53;;;9.17;92.52
7109;BME280;29079;41.930;25.558;2023-02-23T12:32:04;99767.28;;;9.19;93.09
7109;BME280;29079;41.930;25.558;2023-02-23T12:34:44;99768.72;;;9.12;93.62
7109;BME280;29079;41.930;25.558;2023-02-23T12:37:30;99769.06;;;9.19;93.42
7109;BME280;29079;41.930;25.558;2023-02-23T12:40:16;99772.09;;;9.26;93.19
7109;BME280;29079;41.930;25.558;2023-02-23T12:42:57;99765.69;;;9.28;93.28
7109;BME280;29079;41.930;25.558;2023-02-23T12:45:36;99769.69;;;9.34;92.00
7109;BME280;29079;41.930;25.558;2023-02-23T12:48:17;99765.78;;;9.38;91.99
7109;BME280;29079;41.930;25.558;2023-02-23T12:51:02;99763.50;;;9.33;91.93
7109;BME280;29079;41.930;25.558;2023-02-23T12:53:40;99768.69;;;9.46;91.98
7109;BME280;29079;41.930;25.558;2023-02-23T12:56:27;99747.00;;;9.39;91.12
7109;BME280;29079;41.930;25.558;2023-02-23T12:59:16;99770.03;;;9.52;90.95
7109;BME280;29079;41.930;25.558;2023-02-23T13:01:55;99774.38;;;9.53;91.63
7109;BME280;29079;41.930;25.558;2023-02-23T13:04:42;99771.59;;;9.54;91.57
7109;BME280;29079;41.930;25.558;2023-02-23T13:07:29;99769.88;;;9.53;92.27
7109;BME280;29079;41.930;25.558;2023-02-23T13:10:19;99726.47;;;9.30;91.56
7109;BME280;29079;41.930;25.558;2023-02-23T13:13:09;99772.28;;;9.68;91.16
7109;BME280;29079;41.930;25.558;2023-02-23T13:15:54;99764.41;;;9.66;91.30
7109;BME280;29079;41.930;25.558;2023-02-23T13:18:33;99769.75;;;9.66;91.21
7109;BME280;29079;41.930;25.558;2023-02-23T13:21:16;99758.47;;;9.63;91.91
7109;BME280;29079;41.930;25.558;2023-02-23T13:24:00;99758.84;;;9.69;91.71
7109;BME280;29079;41.930;25.558;2023-02-23T13:26:41;99763.41;;;9.79;91.68
7109;BME280;29079;41.930;25.558;2023-02-23T13:29:30;99756.03;;;9.82;91.16
7109;BME280;29079;41.930;25.558;2023-02-23T13:32:10;99752.13;;;9.86;90.69
7109;BME280;29079;41.930;25.558;2023-02-23T13:34:49;99752.38;;;9.83;90.33
7109;BME280;29079;41.930;25.558;2023-02-23T13:37:26;99753.34;;;9.82;90.21
7109;BME280;29079;41.930;25.558;2023-02-23T13:40:18;99739.06;;;9.83;89.36
7109;BME280;29079;41.930;25.558;2023-02-23T13:42:59;99756.00;;;9.93;88.89
7109;BME280;29079;41.930;25.558;2023-02-23T13:45:54;99755.00;;;9.94;89.46
7109;BME280;29079;41.930;25.558;2023-02-23T13:48:39;99756.00;;;9.93;89.36
7109;BME280;29079;41.930;25.558;2023-02-23T13:51:34;99761.31;;;9.93;88.57
7109;BME280;29079;41.930;25.558;2023-02-23T13:54:22;99762.53;;;9.89;87.98
7109;BME280;29079;41.930;25.558;2023-02-23T13:56:58;99767.13;;;9.87;88.26
7109;BME280;29079;41.930;25.558;2023-02-23T13:59:37;99755.06;;;9.83;87.84
7109;BME280;29079;41.930;25.558;2023-02-23T14:02:34;99775.88;;;9.89;87.87
7109;BME280;29079;41.930;25.558;2023-02-23T14:05:17;99770.78;;;9.86;88.22
7109;BME280;29079;41.930;25.558;2023-02-23T14:07:53;99763.75;;;9.85;87.88
7109;BME280;29079;41.930;25.558;2023-02-23T14:10:29;99766.16;;;9.88;88.11
7109;BME280;29079;41.930;25.558;2023-02-23T14:13:25;99770.66;;;9.88;87.94
7109;BME280;29079;41.930;25.558;2023-02-23T14:16:16;99772.47;;;9.87;88.21
7109;BME280;29079;41.930;25.558;2023-02-23T14:19:05;99772.00;;;9.82;88.30